createdAt,value
2022-08-19T00:01:58.993Z,23.89
2022-08-19T00:04:30.573Z,23.73
2022-08-19T00:06:59.757Z,23.55
2022-08-19T00:09:28.291Z,23.52
2022-08-19T00:11:57.370Z,23.67
2022-08-19T00:14:31.154Z,23.49
2022-08-19T00:17:05.223Z,23.22
2022-08-19T00:19:33.300Z,23.31
2022-08-19T00:22:01.481Z,23.53
2022-08-19T00:24:29.669Z,23.71
2022-08-19T00:26:58.428Z,23.17
2022-08-19T00:29:52.302Z,23.22
2022-08-19T00:32:21.266Z,23.13
2022-08-19T00:34:51.592Z,23.33
2022-08-19T00:37:19.612Z,23.39
2022-08-19T00:39:49.271Z,23.56
2022-08-19T00:42:17.533Z,23.34
2022-08-19T00:44:47.165Z,23.36
2022-08-19T00:47:16.153Z,23.08
2022-08-19T00:49:51.658Z,22.92
2022-08-19T00:52:23.473Z,23.12
2022-08-19T00:54:54.703Z,23.20
2022-08-19T00:57:32.778Z,23.38
2022-08-19T01:00:04.074Z,23.41
2022-08-19T01:02:34.255Z,23.27
2022-08-19T01:05:06.544Z,23.36
2022-08-19T01:07:37.511Z,23.48
2022-08-19T01:10:09.893Z,23.42
2022-08-19T01:12:38.304Z,23.56
2022-08-19T01:15:10.918Z,23.57
2022-08-19T01:17:41.089Z,23.38
2022-08-19T01:20:13.998Z,23.45
2022-08-19T01:22:47.083Z,23.42
2022-08-19T01:25:16.721Z,23.14
2022-08-19T01:27:48.433Z,23.45
2022-08-19T01:30:21.372Z,23.35
2022-08-19T01:32:49.332Z,23.37
2022-08-19T01:35:19.117Z,23.43
2022-08-19T01:37:52.848Z,23.36
2022-08-19T01:40:24.037Z,23.19
2022-08-19T01:42:52.952Z,23.13
2022-08-19T01:45:22.838Z,23.09
2022-08-19T01:47:52.753Z,23.27
2022-08-19T01:50:31.246Z,23.38
2022-08-19T01:53:06.389Z,23.15
2022-08-19T01:55:40.551Z,23.05
2022-08-19T01:58:14.278Z,23.03
2022-08-19T02:00:42.523Z,23.09
2022-08-19T02:03:12.103Z,23.27
2022-08-19T02:05:40.329Z,23.12
2022-08-19T02:08:10.318Z,23.02
2022-08-19T02:10:41.961Z,23.11
2022-08-19T02:13:09.989Z,23.22
2022-08-19T02:15:38.910Z,23.04
2022-08-19T02:18:08.298Z,23.06
2022-08-19T02:20:37.407Z,22.85
2022-08-19T02:23:05.377Z,23.02
2022-08-19T02:25:43.623Z,22.90
2022-08-19T02:28:15.515Z,22.62
2022-08-19T02:30:45.857Z,22.71
2022-08-19T02:33:13.754Z,22.94
2022-08-19T02:35:43.551Z,22.83
2022-08-19T02:38:29.581Z,22.72
2022-08-19T02:41:01.726Z,22.26
2022-08-19T02:43:36.859Z,22.69
2022-08-19T02:46:13.818Z,22.86
2022-08-19T02:48:41.679Z,22.92
2022-08-19T02:51:09.596Z,22.68
2022-08-19T02:53:38.178Z,22.84
2022-08-19T02:56:09.928Z,22.65
2022-08-19T02:58:37.778Z,22.89
2022-08-19T03:01:06.770Z,22.60
2022-08-19T03:03:35.184Z,22.32
2022-08-19T03:06:11.596Z,22.55
2022-08-19T03:08:43.058Z,22.34
2022-08-19T03:11:17.013Z,22.41
2022-08-19T03:13:45.234Z,22.43
2022-08-19T03:16:13.659Z,22.42
2022-08-19T03:18:41.449Z,22.50
2022-08-19T03:21:12.461Z,22.60
2022-08-19T03:23:41.078Z,22.53
2022-08-19T03:26:16.800Z,22.23
2022-08-19T03:28:58.368Z,22.51
2022-08-19T03:31:45.159Z,22.57
2022-08-19T03:34:20.713Z,22.19
2022-08-19T03:36:49.662Z,22.16
2022-08-19T03:39:18.618Z,22.19
2022-08-19T03:41:48.787Z,22.33
2022-08-19T03:44:21.550Z,22.17
2022-08-19T03:46:50.867Z,22.35
2022-08-19T03:49:20.018Z,22.36
2022-08-19T03:51:51.196Z,22.51
2022-08-19T03:54:20.797Z,22.52
2022-08-19T03:56:50.975Z,22.50
2022-08-19T03:59:27.683Z,22.63
2022-08-19T04:01:57.279Z,22.41
2022-08-19T04:04:29.019Z,22.39
2022-08-19T04:07:00.102Z,22.25
2022-08-19T04:09:28.269Z,22.35
2022-08-19T04:11:57.822Z,22.33
2022-08-19T04:14:30.455Z,22.60
2022-08-19T04:16:59.660Z,22.22
2022-08-19T04:19:28.384Z,22.03
2022-08-19T04:21:56.558Z,21.99
2022-08-19T04:24:25.301Z,22.20
2022-08-19T04:26:55.259Z,21.89
2022-08-19T04:29:26.084Z,22.05
2022-08-19T04:31:57.546Z,22.07
2022-08-19T04:34:27.500Z,22.19
2022-08-19T04:36:57.066Z,22.04
2022-08-19T04:39:48.226Z,21.54
2022-08-19T04:42:34.481Z,21.94
2022-08-19T04:45:03.910Z,21.83
2022-08-19T04:47:48.272Z,21.76
2022-08-19T04:50:23.525Z,21.71
2022-08-19T04:52:53.411Z,22.06
2022-08-19T04:55:23.989Z,21.62
2022-08-19T04:57:54.261Z,21.88
2022-08-19T05:00:22.240Z,22.15
2022-08-19T05:02:51.825Z,21.68
2022-08-19T05:05:21.813Z,21.93
2022-08-19T05:07:50.011Z,22.16
2022-08-19T05:10:18.021Z,22.19
2022-08-19T05:12:45.845Z,22.25
2022-08-19T05:15:13.887Z,21.93
2022-08-19T05:18:03.125Z,22.11
2022-08-19T05:20:49.687Z,22.13
2022-08-19T05:23:21.995Z,21.88
2022-08-19T05:25:51.136Z,21.86
2022-08-19T05:28:19.352Z,21.47
2022-08-19T05:30:49.041Z,21.86
2022-08-19T05:33:16.980Z,21.90
2022-08-19T05:35:47.108Z,21.56
2022-08-19T05:38:18.501Z,21.90
2022-08-19T05:40:50.343Z,22.13
2022-08-19T05:43:18.364Z,22.06
2022-08-19T05:45:46.627Z,22.25
2022-08-19T05:48:15.712Z,22.09
2022-08-19T05:50:45.350Z,22.14
2022-08-19T05:53:15.526Z,21.94
2022-08-19T05:55:43.360Z,22.31
2022-08-19T05:58:11.171Z,22.16
2022-08-19T06:00:41.019Z,22.17
2022-08-19T06:03:11.799Z,22.14
2022-08-19T06:05:44.736Z,21.74
2022-08-19T06:08:33.965Z,21.47
2022-08-19T06:11:16.940Z,21.59
2022-08-19T06:13:46.028Z,21.82
2022-08-19T06:16:13.938Z,21.97
2022-08-19T06:18:41.787Z,21.95
2022-08-19T06:21:09.625Z,22.21
2022-08-19T06:23:39.389Z,21.90
2022-08-19T06:26:08.900Z,22.13
2022-08-19T06:28:36.765Z,22.00
2022-08-19T06:31:08.690Z,21.95
2022-08-19T06:33:36.598Z,21.99
2022-08-19T06:36:05.287Z,21.59
2022-08-19T06:38:34.362Z,21.90
2022-08-19T06:41:07.379Z,21.84
2022-08-19T06:43:38.109Z,21.55
2022-08-19T06:46:16.062Z,21.93
2022-08-19T06:48:45.138Z,22.04
2022-08-19T06:51:16.584Z,22.06
2022-08-19T06:53:47.986Z,22.24
2022-08-19T06:56:21.967Z,21.68
2022-08-19T06:58:51.994Z,21.79
2022-08-19T07:01:20.717Z,21.63
2022-08-19T07:03:48.644Z,21.60
2022-08-19T07:06:43.168Z,21.93
2022-08-19T07:09:12.265Z,21.85
2022-08-19T07:11:46.278Z,21.78
2022-08-19T07:14:19.298Z,22.13
2022-08-19T07:16:48.784Z,22.09
2022-08-19T07:19:18.906Z,22.09
2022-08-19T07:21:48.113Z,22.14
2022-08-19T07:24:17.024Z,21.89
2022-08-19T07:26:46.718Z,21.95
2022-08-19T07:29:20.438Z,21.45
2022-08-19T07:31:53.087Z,21.76
2022-08-19T07:34:22.198Z,21.45
2022-08-19T07:36:50.045Z,21.51
2022-08-19T07:39:20.980Z,21.90
2022-08-19T07:41:51.344Z,21.77
2022-08-19T07:44:21.434Z,21.77
2022-08-19T07:46:53.342Z,21.76
2022-08-19T07:49:22.348Z,21.51
2022-08-19T07:51:52.982Z,21.23
2022-08-19T07:54:21.959Z,21.25
2022-08-19T07:56:52.461Z,21.47
2022-08-19T07:59:21.523Z,21.45
2022-08-19T08:01:51.199Z,21.27
2022-08-19T08:04:37.934Z,21.54
2022-08-19T08:07:23.692Z,21.53
2022-08-19T08:09:52.568Z,21.73
2022-08-19T08:12:34.292Z,22.06
2022-08-19T08:15:12.445Z,22.16
2022-08-19T08:17:49.541Z,21.64
2022-08-19T08:20:20.583Z,21.73
2022-08-19T08:23:07.246Z,21.60
2022-08-19T08:25:36.304Z,21.54
2022-08-19T08:28:11.202Z,21.57
2022-08-19T08:30:42.445Z,21.57
2022-08-19T08:33:13.818Z,21.81
2022-08-19T08:35:43.793Z,21.90
2022-08-19T08:38:11.648Z,21.94
2022-08-19T08:40:45.996Z,22.14
2022-08-19T08:43:24.228Z,21.87
2022-08-19T08:45:57.421Z,22.13
2022-08-19T08:48:36.603Z,22.01
2022-08-19T08:51:09.671Z,22.43
2022-08-19T08:53:41.807Z,22.33
2022-08-19T08:56:13.366Z,22.70
2022-08-19T08:58:54.702Z,22.39
2022-08-19T09:01:23.295Z,22.46
2022-08-19T09:03:51.714Z,22.57
2022-08-19T09:06:26.546Z,22.14
2022-08-19T09:09:04.391Z,22.68
2022-08-19T09:11:52.808Z,22.52
2022-08-19T09:14:51.145Z,22.91
2022-08-19T09:17:29.106Z,22.68
2022-08-19T09:20:01.677Z,22.93
2022-08-19T09:22:32.303Z,22.51
2022-08-19T09:25:00.373Z,22.93
2022-08-19T09:27:41.706Z,22.66
2022-08-19T09:30:16.698Z,22.49
2022-08-19T09:32:46.336Z,22.68
2022-08-19T09:35:15.471Z,22.43
2022-08-19T09:37:44.367Z,22.76
2022-08-19T09:40:15.760Z,22.90
2022-08-19T09:42:50.313Z,22.53
2022-08-19T09:45:23.615Z,22.20
2022-08-19T09:47:54.182Z,22.88
2022-08-19T09:50:24.750Z,22.94
2022-08-19T09:52:57.364Z,22.67
2022-08-19T09:55:31.213Z,22.68
2022-08-19T09:58:03.730Z,23.13
2022-08-19T10:00:33.033Z,22.48
2022-08-19T10:03:01.274Z,22.34
2022-08-19T10:05:48.718Z,23.10
2022-08-19T10:08:18.199Z,23.25
2022-08-19T10:10:47.249Z,23.12
2022-08-19T10:13:17.109Z,23.24
2022-08-19T10:15:51.569Z,23.24
2022-08-19T10:18:21.747Z,23.35
2022-08-19T10:20:52.733Z,23.40
2022-08-19T10:23:22.556Z,23.39
2022-08-19T10:25:50.805Z,23.15
2022-08-19T10:28:19.290Z,23.38
2022-08-19T10:30:49.419Z,23.49
2022-08-19T10:33:39.258Z,23.55
2022-08-19T10:36:08.511Z,23.46
2022-08-19T10:38:36.979Z,23.25
2022-08-19T10:41:13.559Z,23.80
2022-08-19T10:43:41.847Z,23.55
2022-08-19T10:46:16.780Z,23.60
2022-08-19T10:48:45.635Z,23.53
2022-08-19T10:51:31.950Z,23.47
2022-08-19T10:54:00.822Z,23.66
2022-08-19T10:56:47.025Z,23.69
2022-08-19T10:59:15.653Z,23.52
2022-08-19T11:01:48.105Z,23.69
2022-08-19T11:04:20.004Z,23.83
2022-08-19T11:06:49.445Z,24.23
2022-08-19T11:09:19.508Z,24.24
2022-08-19T11:11:48.512Z,23.84
2022-08-19T11:14:22.318Z,23.64
2022-08-19T11:16:52.413Z,23.85
2022-08-19T11:19:21.998Z,23.82
2022-08-19T11:21:50.971Z,23.73
2022-08-19T11:24:24.386Z,24.15
2022-08-19T11:26:57.791Z,24.30
2022-08-19T11:29:28.722Z,24.19
2022-08-19T11:31:58.116Z,24.23
2022-08-19T11:34:29.205Z,24.46
2022-08-19T11:36:59.956Z,23.85
2022-08-19T11:39:30.008Z,24.16
2022-08-19T11:42:00.070Z,24.02
2022-08-19T11:44:28.723Z,24.20
2022-08-19T11:46:58.671Z,23.71
2022-08-19T11:49:37.261Z,23.85
2022-08-19T11:52:05.482Z,24.07
2022-08-19T11:54:33.678Z,23.99
2022-08-19T11:57:02.099Z,23.90
2022-08-19T11:59:30.281Z,23.63
2022-08-19T12:02:00.181Z,23.64
2022-08-19T12:04:28.125Z,23.79
2022-08-19T12:06:56.372Z,24.09
2022-08-19T12:09:24.377Z,24.47
2022-08-19T12:11:54.924Z,24.78
2022-08-19T12:14:22.976Z,24.33
2022-08-19T12:16:52.567Z,23.95
2022-08-19T12:19:22.816Z,24.09
2022-08-19T12:21:51.695Z,24.00
2022-08-19T12:24:23.940Z,24.17
2022-08-19T12:26:54.455Z,24.23
2022-08-19T12:29:30.584Z,24.58
2022-08-19T12:32:04.020Z,25.04
2022-08-19T12:34:34.256Z,24.78
2022-08-19T12:37:04.522Z,25.00
2022-08-19T12:39:35.791Z,25.19
2022-08-19T12:42:03.953Z,25.45
2022-08-19T12:44:32.991Z,25.57
2022-08-19T12:47:05.354Z,24.72
2022-08-19T12:49:54.490Z,24.96
2022-08-19T12:52:24.779Z,25.35
2022-08-19T12:54:54.262Z,25.26
2022-08-19T12:57:25.868Z,25.51
2022-08-19T13:00:00.822Z,25.09
2022-08-19T13:02:28.719Z,24.95
2022-08-19T13:04:59.474Z,25.10
2022-08-19T13:07:27.406Z,25.13
2022-08-19T13:09:55.269Z,24.32
2022-08-19T13:12:25.235Z,24.58
2022-08-19T13:14:53.264Z,24.82
2022-08-19T13:17:21.418Z,24.69
2022-08-19T13:19:49.772Z,24.78
2022-08-19T13:22:19.535Z,24.76
2022-08-19T13:24:47.697Z,24.51
2022-08-19T13:27:16.231Z,24.28
2022-08-19T13:30:04.075Z,24.39
2022-08-19T13:32:49.055Z,24.56
2022-08-19T13:35:17.685Z,24.24
2022-08-19T13:37:46.969Z,23.96
2022-08-19T13:40:19.227Z,23.86
2022-08-19T13:42:48.850Z,23.87
2022-08-19T13:45:19.031Z,23.49
2022-08-19T13:47:47.925Z,23.41
2022-08-19T13:50:18.935Z,23.61
2022-08-19T13:52:49.172Z,23.66
2022-08-19T13:55:24.754Z,23.44
2022-08-19T13:57:53.993Z,22.91
2022-08-19T14:00:27.481Z,22.90
2022-08-19T14:02:58.458Z,22.79
2022-08-19T14:05:28.150Z,22.71
2022-08-19T14:07:57.817Z,22.58
2022-08-19T14:10:31.698Z,22.86
2022-08-19T14:13:02.266Z,23.00
2022-08-19T14:15:30.998Z,23.33
2022-08-19T14:17:59.568Z,23.12
2022-08-19T14:20:27.960Z,23.13
2022-08-19T14:22:57.379Z,23.32
2022-08-19T14:25:28.441Z,23.27
2022-08-19T14:27:57.509Z,23.10
2022-08-19T14:30:28.540Z,23.56
2022-08-19T14:32:57.498Z,23.60
2022-08-19T14:35:25.464Z,23.60
2022-08-19T14:37:56.405Z,23.78
2022-08-19T14:40:28.090Z,23.50
2022-08-19T14:43:00.441Z,23.58
2022-08-19T14:45:29.893Z,23.82
2022-08-19T14:48:01.313Z,23.97
2022-08-19T14:50:30.101Z,24.07
2022-08-19T14:53:08.166Z,23.96
2022-08-19T14:55:44.393Z,23.98
2022-08-19T14:58:28.329Z,24.02
2022-08-19T15:01:00.251Z,24.00
2022-08-19T15:03:28.399Z,24.09
2022-08-19T15:05:59.514Z,24.43
2022-08-19T15:08:29.012Z,24.40
2022-08-19T15:11:01.516Z,24.46
2022-08-19T15:13:31.594Z,24.18
2022-08-19T15:16:00.075Z,23.72
2022-08-19T15:18:30.662Z,24.14
2022-08-19T15:20:58.736Z,23.96
2022-08-19T15:23:27.471Z,23.88
2022-08-19T15:25:56.562Z,24.06
2022-08-19T15:28:28.431Z,24.12
2022-08-19T15:30:56.339Z,23.57
2022-08-19T15:33:24.418Z,23.81
2022-08-19T15:35:54.059Z,23.73
2022-08-19T15:38:23.739Z,24.28
2022-08-19T15:40:51.760Z,24.21
2022-08-19T15:43:22.194Z,23.89
2022-08-19T15:45:51.444Z,24.33
2022-08-19T15:48:19.405Z,24.19
2022-08-19T15:50:47.342Z,24.21
2022-08-19T15:53:15.285Z,23.85
2022-08-19T15:55:45.658Z,23.89
2022-08-19T15:58:33.742Z,24.31
2022-08-19T16:01:23.803Z,24.65
2022-08-19T16:04:14.097Z,24.41
2022-08-19T16:06:46.156Z,24.38
2022-08-19T16:09:15.490Z,24.50
2022-08-19T16:11:45.934Z,24.21
2022-08-19T16:14:15.597Z,24.03
2022-08-19T16:16:46.971Z,23.66
2022-08-19T16:19:17.290Z,24.03
2022-08-19T16:21:46.474Z,23.48
2022-08-19T16:24:16.516Z,23.88
2022-08-19T16:26:45.817Z,23.81
2022-08-19T16:29:14.134Z,23.95
2022-08-19T16:31:45.165Z,24.00
2022-08-19T16:34:14.767Z,23.54
2022-08-19T16:36:43.500Z,23.79
2022-08-19T16:39:12.992Z,23.72
2022-08-19T16:41:41.922Z,23.81
2022-08-19T16:44:11.604Z,23.42
2022-08-19T16:46:41.612Z,23.35
2022-08-19T16:49:13.555Z,23.46
2022-08-19T16:51:42.918Z,23.44
2022-08-19T16:54:13.864Z,23.83
2022-08-19T16:56:41.786Z,23.93
2022-08-19T16:59:13.665Z,23.50
2022-08-19T17:01:43.790Z,23.61
2022-08-19T17:04:13.399Z,23.62
2022-08-19T17:06:41.394Z,23.37
2022-08-19T17:09:09.313Z,23.58
2022-08-19T17:11:37.250Z,23.34
2022-08-19T17:14:08.440Z,23.44
2022-08-19T17:16:37.925Z,23.40
2022-08-19T17:19:08.343Z,23.23
2022-08-19T17:21:40.639Z,23.26
2022-08-19T17:24:09.851Z,23.39
2022-08-19T17:26:39.277Z,23.09
2022-08-19T17:29:07.479Z,23.50
2022-08-19T17:31:35.943Z,23.65
2022-08-19T17:34:04.344Z,23.77
2022-08-19T17:36:34.218Z,23.60
2022-08-19T17:39:05.371Z,23.07
2022-08-19T17:41:34.824Z,22.98
2022-08-19T17:44:03.516Z,22.91
2022-08-19T17:46:31.513Z,23.16
2022-08-19T17:48:59.417Z,23.12
2022-08-19T17:51:42.621Z,22.80
2022-08-19T17:54:13.953Z,23.15
2022-08-19T17:56:45.211Z,22.98
2022-08-19T17:59:14.089Z,23.31
2022-08-19T18:01:52.674Z,23.35
2022-08-19T18:04:23.231Z,23.45
2022-08-19T18:06:53.284Z,23.11
2022-08-19T18:09:25.444Z,23.11
2022-08-19T18:11:56.747Z,22.77
2022-08-19T18:14:33.296Z,22.67
2022-08-19T18:17:06.378Z,22.52
2022-08-19T18:19:41.525Z,22.84
2022-08-19T18:22:11.832Z,22.98
2022-08-19T18:24:45.844Z,22.77
2022-08-19T18:27:14.382Z,22.59
2022-08-19T18:29:45.508Z,22.77
2022-08-19T18:32:14.205Z,22.80
2022-08-19T18:34:43.421Z,22.83
2022-08-19T18:37:11.445Z,22.72
2022-08-19T18:40:08.746Z,22.73
2022-08-19T18:43:02.546Z,22.67
2022-08-19T18:45:47.998Z,22.88
2022-08-19T18:48:33.159Z,22.89
2022-08-19T18:51:02.694Z,22.97
2022-08-19T18:53:33.699Z,23.05
2022-08-19T18:56:02.029Z,23.04
2022-08-19T18:58:34.551Z,23.08
2022-08-19T19:01:10.553Z,22.95
2022-08-19T19:03:40.083Z,23.05
2022-08-19T19:06:08.255Z,23.11
2022-08-19T19:08:36.442Z,23.18
2022-08-19T19:11:05.958Z,23.08
2022-08-19T19:13:39.822Z,23.01
2022-08-19T19:16:12.373Z,22.96
2022-08-19T19:18:40.397Z,23.10
2022-08-19T19:21:09.088Z,23.09
2022-08-19T19:23:40.652Z,23.10
2022-08-19T19:26:10.474Z,22.84
2022-08-19T19:28:46.169Z,22.61
2022-08-19T19:31:16.032Z,22.64
2022-08-19T19:33:46.838Z,22.46
2022-08-19T19:36:15.199Z,22.80
2022-08-19T19:38:48.627Z,22.85
2022-08-19T19:41:20.768Z,22.92
2022-08-19T19:43:59.860Z,22.98
2022-08-19T19:46:38.752Z,23.05
2022-08-19T19:49:07.494Z,23.12
2022-08-19T19:51:37.656Z,23.10
2022-08-19T19:54:06.540Z,23.10
2022-08-19T19:56:35.076Z,22.91
2022-08-19T19:59:04.370Z,22.84
2022-08-19T20:01:32.511Z,22.95
2022-08-19T20:04:01.645Z,23.00
2022-08-19T20:06:30.265Z,23.01
2022-08-19T20:09:10.517Z,23.06
2022-08-19T20:11:40.906Z,22.96
2022-08-19T20:14:14.022Z,22.99
2022-08-19T20:16:43.991Z,22.95
2022-08-19T20:19:13.377Z,23.00
2022-08-19T20:21:47.584Z,22.77
2022-08-19T20:24:22.507Z,22.96
2022-08-19T20:26:53.377Z,23.02
2022-08-19T20:29:40.253Z,23.03
2022-08-19T20:32:11.649Z,22.90
2022-08-19T20:34:44.623Z,23.01
2022-08-19T20:37:12.572Z,22.86
2022-08-19T20:39:40.510Z,22.96
2022-08-19T20:42:08.540Z,23.02
2022-08-19T20:44:38.065Z,22.86
2022-08-19T20:47:06.253Z,22.87
2022-08-19T20:49:35.213Z,22.92
2022-08-19T20:52:03.735Z,22.98
2022-08-19T20:54:32.407Z,23.00
2022-08-19T20:57:00.537Z,22.96
2022-08-19T20:59:28.503Z,22.98
2022-08-19T21:02:00.905Z,23.02
2022-08-19T21:04:28.929Z,22.66
2022-08-19T21:06:56.875Z,22.76
2022-08-19T21:09:27.034Z,22.76
2022-08-19T21:11:55.038Z,22.80
2022-08-19T21:14:25.460Z,22.91
2022-08-19T21:16:55.725Z,22.83
2022-08-19T21:19:25.077Z,22.95
2022-08-19T21:21:53.410Z,22.94
2022-08-19T21:24:26.382Z,22.76
2022-08-19T21:27:00.170Z,22.81
2022-08-19T21:29:28.110Z,22.95
2022-08-19T21:31:56.004Z,23.09
2022-08-19T21:34:25.290Z,23.05
2022-08-19T21:36:55.704Z,23.20
2022-08-19T21:39:23.672Z,23.07
2022-08-19T21:41:51.610Z,23.11
2022-08-19T21:44:19.518Z,23.24
2022-08-19T21:46:50.419Z,23.24
2022-08-19T21:49:21.260Z,23.35
2022-08-19T21:51:50.994Z,23.37
2022-08-19T21:54:18.791Z,23.38
2022-08-19T21:56:47.076Z,23.45
2022-08-19T21:59:15.072Z,23.48
2022-08-19T22:01:48.743Z,23.46
2022-08-19T22:04:21.473Z,23.51
2022-08-19T22:06:50.771Z,23.41
2022-08-19T22:09:20.919Z,23.31
2022-08-19T22:11:49.164Z,23.29
2022-08-19T22:14:19.367Z,23.35
2022-08-19T22:16:47.347Z,23.30
2022-08-19T22:19:15.228Z,23.14
2022-08-19T22:21:43.161Z,23.28
2022-08-19T22:24:12.430Z,23.27
2022-08-19T22:26:40.338Z,23.12
2022-08-19T22:29:09.048Z,23.33
2022-08-19T22:31:39.421Z,23.05
2022-08-19T22:34:07.940Z,23.09
2022-08-19T22:36:35.976Z,23.30
2022-08-19T22:39:04.768Z,23.12
2022-08-19T22:41:34.505Z,23.13
2022-08-19T22:44:02.493Z,23.12
2022-08-19T22:46:34.254Z,23.22
2022-08-19T22:49:02.155Z,23.19
2022-08-19T22:51:47.997Z,23.10
2022-08-19T22:54:16.022Z,23.32
2022-08-19T22:56:45.397Z,23.13
2022-08-19T22:59:13.298Z,23.17
2022-08-19T23:01:41.787Z,22.95
2022-08-19T23:04:09.783Z,23.25
2022-08-19T23:06:41.473Z,23.32
2022-08-19T23:09:10.691Z,23.11
2022-08-19T23:11:41.981Z,22.95
2022-08-19T23:14:12.582Z,23.08
2022-08-19T23:16:41.596Z,23.22
2022-08-19T23:19:10.185Z,23.20
2022-08-19T23:21:38.905Z,23.12
2022-08-19T23:24:07.409Z,23.20
2022-08-19T23:26:36.303Z,23.06
2022-08-19T23:29:24.530Z,23.01
2022-08-19T23:31:56.088Z,23.07
2022-08-19T23:34:23.936Z,22.94
2022-08-19T23:36:51.803Z,22.83
2022-08-19T23:39:20.062Z,22.77
2022-08-19T23:41:48.343Z,22.90
2022-08-19T23:44:16.323Z,22.92
2022-08-19T23:46:55.355Z,22.98
2022-08-19T23:49:26.870Z,22.65
2022-08-19T23:51:57.028Z,22.40
2022-08-19T23:54:34.358Z,22.69
2022-08-19T23:57:13.757Z,22.84
2022-08-19T23:59:45.194Z,22.88
